Main page
METAR-TAF:

METAR-TAF

Airports :

Chinandega Airport

Chinandega, Nicaragua

latitude: 12-38N, longitude: 087-08W, elevation: 53 m

Current weather observation

The report was made 1 hour and 6 minutes ago, at 15:00 UTC
Wind 4 kt from the South
Temperature 28°C
Humidity 74%
Pressure 1014 hPa
Visibility 10 km or more
Few clouds at a height of 2500 ft
Broken clouds at a height of 30000 ft

METAR: MNCH 221500Z 18004KT 9999 FEW025 BKN300 28/23 Q1014

Time: 10:06 (16:06 UTC)


TAF: missing

Weather observations and forecasts of more than 4000 airports (METAR and TAF reports).

The available stations are represented by yellow and red dots on the map.

Hover mouse over dot to see the name of the station.

Then click to see weather observations and forecasts.

To change the map : click on the green buttons with a black cross to zoom in, on the green button with a dash to zoom out, or on the green arrows for adjacent maps.


METAR-TAF: